Time;durP1;ratioP1;P1;durP2;ratioP2;P2;SDS_P1;SDS_P2;PMS_P1;PMS_P2;Temp;Humidity;BMP_temperature;BMP_pressure;BME280_temperature;BME280_humidity;BME280_pressure;Samples;Min_cycle;Max_cycle;Signal;HPM_P1;HPM_P2
2021/06/17 00:01:43;;;;;;;13.77;12.57;;;20.30;99.90;;;;;;5032237;28;20177;-74
2021/06/17 00:04:08;;;;;;;13.37;12.17;;;20.30;99.90;;;;;;5000411;28;20300;-73
2021/06/17 00:06:34;;;;;;;12.93;11.73;;;20.30;99.90;;;;;;5028221;28;20286;-73
2021/06/17 00:09:00;;;;;;;12.93;11.83;;;20.40;99.90;;;;;;5031918;28;20188;-73
2021/06/17 00:11:26;;;;;;;12.17;11.07;;;20.40;99.90;;;;;;5031871;28;20185;-74
2021/06/17 00:13:52;;;;;;;12.77;11.73;;;20.30;99.90;;;;;;5030312;28;20314;-73
2021/06/17 00:16:18;;;;;;;13.20;12.17;;;20.30;99.90;;;;;;5032743;28;20331;-74
2021/06/17 00:18:44;;;;;;;12.70;11.53;;;20.30;99.90;;;;;;5031720;28;20516;-73
2021/06/17 00:21:11;;;;;;;13.50;12.40;;;20.30;99.90;;;;;;5032258;28;20280;-74
2021/06/17 00:23:37;;;;;;;12.67;11.67;;;20.20;99.90;;;;;;5032415;28;20913;-74
2021/06/17 00:26:04;;;;;;;12.93;11.93;;;20.20;99.90;;;;;;5032355;28;20434;-74
2021/06/17 00:28:30;;;;;;;12.33;11.33;;;20.10;99.90;;;;;;5031787;28;20243;-74
2021/06/17 00:30:56;;;;;;;12.70;11.43;;;20.20;99.90;;;;;;5034103;28;20578;-73
2021/06/17 00:33:22;;;;;;;13.17;12.17;;;20.20;99.90;;;;;;5030195;28;20908;-74
2021/06/17 00:35:48;;;;;;;13.40;12.13;;;20.20;99.90;;;;;;5028342;28;20425;-73
2021/06/17 00:38:14;;;;;;;12.93;11.90;;;20.20;99.90;;;;;;5032012;28;20507;-73
2021/06/17 00:40:40;;;;;;;13.63;12.53;;;20.20;99.90;;;;;;5008276;28;20457;-73
2021/06/17 00:43:07;;;;;;;13.40;12.17;;;20.10;99.90;;;;;;5030947;28;20571;-74
2021/06/17 00:45:37;;;;;;;13.47;12.27;;;20.10;99.90;;;;;;5033297;28;20416;-73
2021/06/17 00:48:04;;;;;;;13.33;12.23;;;20.10;99.90;;;;;;5032354;28;20481;-73
2021/06/17 00:50:46;;;;;;;13.97;12.67;;;20.10;99.90;;;;;;5032290;28;20455;-74
2021/06/17 00:53:13;;;;;;;11.90;10.90;;;20.10;99.90;;;;;;5031299;28;20453;-73
2021/06/17 00:55:42;;;;;;;12.03;11.07;;;20.00;99.90;;;;;;5031473;28;20479;-73
2021/06/17 00:58:09;;;;;;;12.97;11.67;;;20.00;99.90;;;;;;5031161;28;20788;-73
2021/06/17 01:00:35;;;;;;;13.40;12.37;;;20.00;99.90;;;;;;5030918;28;21001;-73
2021/06/17 01:03:03;;;;;;;11.90;10.90;;;20.00;99.90;;;;;;5031771;28;20443;-73
2021/06/17 01:05:28;;;;;;;11.93;10.93;;;20.00;99.90;;;;;;5031835;28;20437;-73
2021/06/17 01:07:57;;;;;;;11.13;10.30;;;20.00;99.90;;;;;;5021380;28;20444;-73
2021/06/17 01:10:46;;;;;;;11.80;10.80;;;20.00;99.90;;;;;;5031419;28;20205;-73
2021/06/17 01:13:32;;;;;;;11.63;10.63;;;20.00;99.90;;;;;;5030369;28;20460;-73
2021/06/17 01:16:10;;;;;;;11.70;10.50;;;20.00;99.90;;;;;;5031814;28;20420;-73
2021/06/17 01:18:40;;;;;;;11.87;10.67;;;20.00;99.90;;;;;;5031140;28;20782;-73
2021/06/17 01:21:18;;;;;;;11.60;10.70;;;20.00;99.90;;;;;;5022041;28;20921;-73
2021/06/17 01:23:58;;;;;;;10.90;10.00;;;20.00;99.90;;;;;;5031692;28;20428;-73
2021/06/17 01:27:01;;;;;;;11.30;10.47;;;19.90;99.90;;;;;;5031653;28;20470;-73
2021/06/17 01:29:28;;;;;;;11.07;10.17;;;19.90;99.90;;;;;;5032661;28;20428;-73
2021/06/17 01:31:54;;;;;;;10.87;9.93;;;19.80;99.90;;;;;;5030597;28;20960;-73
2021/06/17 01:34:22;;;;;;;9.70;8.90;;;19.80;99.90;;;;;;5032464;28;20471;-73
2021/06/17 01:36:58;;;;;;;11.97;10.87;;;19.70;99.90;;;;;;5031621;28;20236;-73
2021/06/17 01:39:24;;;;;;;10.80;9.90;;;19.70;99.90;;;;;;5030425;28;20439;-73
2021/06/17 01:41:52;;;;;;;11.23;10.43;;;19.70;99.90;;;;;;5030337;28;20986;-73
2021/06/17 01:44:21;;;;;;;11.37;10.17;;;19.70;99.90;;;;;;5031466;28;20436;-73
2021/06/17 01:46:49;;;;;;;10.13;9.23;;;19.60;99.90;;;;;;5031611;28;20764;-73
2021/06/17 01:49:16;;;;;;;10.70;9.90;;;19.60;99.90;;;;;;5030683;28;20829;-73
2021/06/17 01:51:43;;;;;;;10.70;9.90;;;19.60;99.90;;;;;;5030825;28;20444;-73
2021/06/17 01:54:09;;;;;;;11.27;9.80;;;19.60;99.90;;;;;;5032057;28;20452;-73
2021/06/17 01:56:36;;;;;;;11.77;10.70;;;19.50;99.90;;;;;;5031527;28;20436;-73
2021/06/17 01:59:05;;;;;;;10.60;9.60;;;19.50;99.90;;;;;;5030911;28;20486;-74
2021/06/17 02:01:32;;;;;;;10.20;9.40;;;19.50;99.90;;;;;;5030872;28;20439;-73
2021/06/17 02:04:02;;;;;;;11.33;10.33;;;19.50;99.90;;;;;;5031435;28;20500;-73
2021/06/17 02:06:29;;;;;;;9.47;8.57;;;19.40;99.90;;;;;;5031400;28;20494;-73
2021/06/17 02:08:57;;;;;;;8.90;8.17;;;19.40;99.90;;;;;;5030890;28;21213;-73
2021/06/17 02:11:28;;;;;;;10.63;9.50;;;19.40;99.90;;;;;;5029931;28;20886;-74
2021/06/17 02:13:56;;;;;;;9.80;9.00;;;19.40;99.90;;;;;;5031508;28;20463;-73
2021/06/17 02:16:24;;;;;;;11.83;10.83;;;19.30;99.90;;;;;;5030602;28;20460;-73
2021/06/17 02:18:52;;;;;;;10.63;9.63;;;19.30;99.90;;;;;;5031335;28;20957;-73
2021/06/17 02:21:18;;;;;;;9.57;8.73;;;19.20;99.90;;;;;;5029993;28;20429;-73
2021/06/17 02:23:50;;;;;;;9.67;8.80;;;19.20;99.90;;;;;;5030988;28;20432;-73
2021/06/17 02:26:18;;;;;;;9.70;8.90;;;19.20;99.90;;;;;;5031450;28;20432;-73
2021/06/17 02:28:47;;;;;;;10.63;9.80;;;19.10;99.90;;;;;;5030616;28;20428;-73
2021/06/17 02:31:17;;;;;;;10.10;9.30;;;19.00;99.90;;;;;;5030061;28;20432;-73
2021/06/17 02:33:46;;;;;;;9.23;8.60;;;19.00;99.90;;;;;;5030607;28;20467;-73
2021/06/17 02:36:13;;;;;;;9.87;9.10;;;19.10;99.90;;;;;;5030558;28;20424;-73
2021/06/17 02:38:42;;;;;;;10.27;9.40;;;19.00;99.90;;;;;;5030596;28;20499;-73
2021/06/17 02:41:10;;;;;;;11.20;10.20;;;19.00;99.90;;;;;;5028899;28;20929;-73
2021/06/17 02:43:40;;;;;;;11.43;10.10;;;18.90;99.90;;;;;;5030441;28;20764;-73
2021/06/17 02:46:06;;;;;;;9.23;8.53;;;18.90;99.90;;;;;;5028996;28;20443;-73
2021/06/17 02:48:32;;;;;;;10.60;9.80;;;18.90;99.90;;;;;;5029470;28;20432;-73
2021/06/17 02:50:58;;;;;;;10.20;9.30;;;18.90;99.90;;;;;;5030801;28;20201;-73
2021/06/17 02:53:24;;;;;;;10.60;9.70;;;18.90;99.90;;;;;;5030329;28;20465;-73
2021/06/17 02:55:50;;;;;;;10.73;9.73;;;18.90;99.90;;;;;;5028415;28;20437;-73
2021/06/17 02:58:28;;;;;;;9.27;8.37;;;18.90;99.90;;;;;;5031377;28;20182;-73
2021/06/17 03:00:56;;;;;;;9.73;9.03;;;18.90;99.90;;;;;;5029771;28;20182;-73
2021/06/17 03:04:11;;;;;;;11.10;10.20;;;18.90;99.90;;;;;;5035403;28;20716;-73
2021/06/17 03:06:44;;;;;;;9.47;8.67;;;18.90;99.90;;;;;;4975854;28;20672;-73
2021/06/17 03:09:15;;;;;;;9.27;8.53;;;18.90;99.90;;;;;;5033224;28;20428;-73
2021/06/17 03:11:45;;;;;;;9.63;8.73;;;18.90;99.90;;;;;;5033932;28;20453;-73
2021/06/17 03:14:23;;;;;;;10.13;9.20;;;18.90;99.90;;;;;;5034088;28;20774;-73
2021/06/17 03:16:51;;;;;;;8.90;8.20;;;18.90;99.90;;;;;;5034759;28;20432;-73
2021/06/17 03:19:18;;;;;;;10.80;9.80;;;18.90;99.90;;;;;;5034943;28;20908;-73
2021/06/17 03:21:47;;;;;;;9.07;8.17;;;18.90;99.90;;;;;;5033131;28;20439;-73
2021/06/17 03:24:15;;;;;;;8.87;8.17;;;18.90;99.90;;;;;;5033516;28;20839;-74
2021/06/17 03:26:43;;;;;;;9.27;8.47;;;18.90;99.90;;;;;;5033688;28;20428;-73
2021/06/17 03:29:12;;;;;;;10.63;9.77;;;18.90;99.90;;;;;;5034429;28;20427;-73
2021/06/17 03:31:39;;;;;;;9.10;8.40;;;18.90;99.90;;;;;;5022986;28;20531;-74
2021/06/17 03:34:07;;;;;;;10.50;9.60;;;18.90;99.90;;;;;;5034062;28;20590;-73
2021/06/17 03:36:34;;;;;;;9.53;8.63;;;18.90;99.90;;;;;;5034967;28;20458;-73
2021/06/17 03:39:01;;;;;;;8.57;7.97;;;18.90;99.90;;;;;;5032942;28;20527;-73
2021/06/17 03:41:28;;;;;;;10.33;9.27;;;18.90;99.90;;;;;;5032881;28;20432;-73
2021/06/17 03:43:54;;;;;;;9.73;8.93;;;18.90;99.90;;;;;;5034360;28;20428;-73
2021/06/17 03:46:21;;;;;;;9.07;8.27;;;19.00;99.90;;;;;;5034462;28;20437;-73
2021/06/17 03:48:47;;;;;;;9.80;8.87;;;19.00;99.90;;;;;;5033517;28;20439;-73
2021/06/17 03:51:14;;;;;;;8.87;8.20;;;19.00;99.90;;;;;;5032793;28;20451;-74
2021/06/17 03:53:43;;;;;;;9.50;8.70;;;19.00;99.90;;;;;;5033094;28;20467;-73
2021/06/17 03:56:12;;;;;;;9.70;8.70;;;19.00;99.90;;;;;;5033544;28;20448;-73
2021/06/17 03:58:40;;;;;;;10.90;10.00;;;19.00;99.90;;;;;;5034268;28;20428;-73
2021/06/17 04:01:07;;;;;;;9.20;8.50;;;18.90;99.90;;;;;;5030311;28;20444;-74
2021/06/17 04:03:33;;;;;;;8.93;8.33;;;19.00;99.90;;;;;;5033017;28;20432;-73
2021/06/17 04:06:00;;;;;;;10.00;9.20;;;19.10;99.90;;;;;;5031249;28;20921;-73
2021/06/17 04:08:42;;;;;;;10.77;9.83;;;19.20;99.90;;;;;;5033915;28;20444;-73
2021/06/17 04:11:09;;;;;;;9.00;8.13;;;19.20;99.90;;;;;;5032801;28;20434;-73
2021/06/17 04:13:41;;;;;;;8.93;8.27;;;19.20;99.90;;;;;;5032981;28;20541;-73
2021/06/17 04:16:13;;;;;;;10.27;9.30;;;19.20;99.90;;;;;;5033218;28;20439;-73
2021/06/17 04:18:39;;;;;;;9.80;9.00;;;19.10;99.90;;;;;;5033274;28;20433;-73
2021/06/17 04:21:06;;;;;;;9.23;8.33;;;19.20;99.90;;;;;;5032530;28;20507;-73
2021/06/17 04:23:33;;;;;;;8.20;7.50;;;19.20;99.90;;;;;;5030648;28;20510;-73
2021/06/17 04:26:01;;;;;;;10.30;9.27;;;19.20;99.90;;;;;;5032467;28;20443;-73
2021/06/17 04:28:28;;;;;;;9.93;9.13;;;19.30;99.90;;;;;;5030013;28;20510;-73
2021/06/17 04:30:56;;;;;;;9.67;8.87;;;19.40;99.90;;;;;;5030269;28;20536;-73
2021/06/17 04:33:25;;;;;;;9.67;8.87;;;19.30;99.90;;;;;;5032735;28;20471;-73
2021/06/17 04:35:51;;;;;;;9.33;8.53;;;19.40;99.90;;;;;;5032550;28;20511;-73
2021/06/17 04:38:19;;;;;;;8.40;7.70;;;19.40;99.90;;;;;;5032450;28;20482;-73
2021/06/17 04:40:47;;;;;;;9.03;8.33;;;19.50;99.90;;;;;;5032449;28;20459;-74
2021/06/17 04:43:14;;;;;;;9.43;8.63;;;19.50;99.90;;;;;;5031343;28;20436;-73
2021/06/17 04:45:42;;;;;;;9.10;8.20;;;19.50;99.90;;;;;;5032849;28;20471;-73
2021/06/17 04:48:10;;;;;;;9.27;8.50;;;19.60;99.90;;;;;;5028828;28;20436;-73
2021/06/17 04:50:37;;;;;;;9.70;9.00;;;19.60;99.90;;;;;;5030109;28;20439;-73
2021/06/17 04:53:11;;;;;;;9.50;8.67;;;19.60;99.90;;;;;;5030778;28;20464;-73
2021/06/17 04:55:45;;;;;;;10.43;9.60;;;19.70;99.90;;;;;;5032766;28;20436;-73
2021/06/17 04:58:11;;;;;;;10.07;8.30;;;19.80;99.90;;;;;;5032698;28;20516;-73
2021/06/17 05:00:37;;;;;;;10.90;9.90;;;19.80;99.90;;;;;;5032362;28;20483;-77
2021/06/17 05:03:03;;;;;;;11.07;10.10;;;19.90;99.90;;;;;;5031943;28;20497;-77
2021/06/17 05:05:29;;;;;;;8.47;7.77;;;20.00;99.90;;;;;;5032121;28;20447;-74
2021/06/17 05:10:52;;;;;;;9.40;8.70;;;20.10;99.90;;;;;;5025183;28;20244;-74
2021/06/17 05:13:28;;;;;;;10.73;8.80;;;20.20;99.90;;;;;;5030588;28;20444;-74
2021/06/17 05:15:55;;;;;;;9.60;8.87;;;20.20;99.90;;;;;;5031609;28;20428;-75
2021/06/17 05:18:22;;;;;;;8.57;7.77;;;20.30;99.90;;;;;;5035604;28;20438;-75
2021/06/17 05:20:49;;;;;;;8.30;7.67;;;20.40;99.90;;;;;;5034875;28;20441;-74
2021/06/17 05:23:18;;;;;;;11.93;8.73;;;20.40;99.90;;;;;;5036634;28;20432;-74
2021/06/17 05:25:45;;;;;;;10.13;9.20;;;20.40;99.90;;;;;;5025222;28;21104;-75
2021/06/17 05:28:15;;;;;;;11.10;8.23;;;20.40;99.90;;;;;;5034382;28;21157;-74
2021/06/17 05:30:45;;;;;;;9.50;8.43;;;20.50;99.90;;;;;;5031266;28;20440;-74
2021/06/17 05:33:11;;;;;;;10.17;9.17;;;20.50;99.90;;;;;;5031619;28;20452;-76
2021/06/17 05:35:37;;;;;;;9.53;8.77;;;20.60;99.90;;;;;;5029396;28;20444;-76
2021/06/17 05:38:03;;;;;;;8.77;8.07;;;20.60;99.90;;;;;;5027511;28;20284;-76
2021/06/17 05:40:29;;;;;;;9.63;8.73;;;20.60;99.90;;;;;;5028875;28;20898;-75
2021/06/17 05:42:55;;;;;;;10.20;8.13;;;20.60;99.90;;;;;;5027063;28;20972;-75
2021/06/17 05:45:21;;;;;;;8.07;7.47;;;20.70;99.90;;;;;;5022588;28;20439;-75
2021/06/17 05:47:47;;;;;;;10.80;9.73;;;20.80;99.90;;;;;;5025088;28;20261;-75
2021/06/17 05:50:13;;;;;;;9.63;8.93;;;20.90;99.90;;;;;;5030075;28;20271;-74
2021/06/17 05:52:38;;;;;;;9.77;8.97;;;21.00;99.90;;;;;;5029137;28;20456;-75
2021/06/17 05:55:05;;;;;;;10.87;9.77;;;21.10;99.90;;;;;;5027325;28;20882;-74
2021/06/17 05:57:31;;;;;;;9.80;8.83;;;21.20;99.90;;;;;;5029015;28;20178;-75
2021/06/17 05:59:57;;;;;;;9.50;8.70;;;21.20;99.90;;;;;;5030516;28;20794;-74
2021/06/17 06:02:25;;;;;;;10.90;10.00;;;21.30;99.90;;;;;;5030270;28;20441;-73
2021/06/17 06:04:51;;;;;;;10.10;9.40;;;21.30;99.90;;;;;;5028337;28;20178;-74
2021/06/17 06:07:17;;;;;;;9.60;8.80;;;21.40;99.90;;;;;;5028658;28;20466;-75
2021/06/17 06:09:43;;;;;;;9.90;8.97;;;21.50;99.90;;;;;;5028483;28;20443;-75
2021/06/17 06:12:10;;;;;;;10.00;9.07;;;21.60;99.90;;;;;;5025443;28;20432;-72
2021/06/17 06:14:37;;;;;;;10.20;9.40;;;21.70;99.90;;;;;;5025660;28;20647;-73
2021/06/17 06:17:03;;;;;;;11.23;9.73;;;21.70;99.90;;;;;;5030553;28;20433;-74
2021/06/17 06:19:30;;;;;;;10.73;9.30;;;21.80;99.90;;;;;;5030508;28;20447;-74
2021/06/17 06:21:56;;;;;;;10.10;9.20;;;21.80;99.90;;;;;;5026818;28;20949;-74
2021/06/17 06:24:22;;;;;;;11.00;9.90;;;21.90;99.90;;;;;;5020423;28;20440;-74
2021/06/17 06:26:48;;;;;;;8.87;8.23;;;21.90;99.90;;;;;;5026580;28;20448;-73
2021/06/17 06:29:13;;;;;;;10.10;9.20;;;22.00;99.90;;;;;;5029606;28;20268;-73
2021/06/17 06:31:39;;;;;;;10.97;9.60;;;22.10;99.90;;;;;;5028245;28;20276;-73
2021/06/17 06:34:05;;;;;;;10.50;9.73;;;22.20;99.90;;;;;;5030250;28;20201;-74
2021/06/17 06:36:31;;;;;;;9.50;8.70;;;22.20;99.90;;;;;;5030234;28;20170;-74
2021/06/17 06:38:57;;;;;;;11.10;10.07;;;22.30;99.90;;;;;;5031261;28;20198;-73
2021/06/17 06:41:22;;;;;;;10.10;9.13;;;22.40;99.90;;;;;;5034072;28;20447;-73
2021/06/17 06:43:48;;;;;;;9.97;9.03;;;22.50;99.90;;;;;;5034117;28;20281;-73
2021/06/17 06:46:14;;;;;;;10.03;9.23;;;22.60;99.90;;;;;;5032646;28;21068;-74
2021/06/17 06:48:40;;;;;;;10.30;9.47;;;22.70;99.90;;;;;;5032954;28;20432;-73
2021/06/17 06:51:05;;;;;;;9.47;8.77;;;22.90;99.90;;;;;;5033471;28;20177;-72
2021/06/17 06:53:31;;;;;;;10.63;9.60;;;22.90;99.90;;;;;;5032476;28;20206;-73
2021/06/17 06:55:57;;;;;;;9.87;9.17;;;23.10;99.90;;;;;;5034149;28;20507;-73
2021/06/17 06:58:22;;;;;;;10.03;9.23;;;23.10;99.90;;;;;;5034197;28;20192;-73
2021/06/17 07:00:48;;;;;;;11.27;10.17;;;23.20;99.90;;;;;;5032208;28;20182;-73
2021/06/17 07:03:14;;;;;;;11.00;9.60;;;23.20;99.90;;;;;;5031673;28;20197;-72
2021/06/17 07:05:40;;;;;;;10.30;9.47;;;23.40;99.90;;;;;;5032213;28;20186;-73
2021/06/17 07:08:14;;;;;;;9.77;9.07;;;23.40;99.90;;;;;;5031956;28;20197;-73
2021/06/17 07:10:43;;;;;;;10.00;9.20;;;23.40;99.90;;;;;;5032506;28;20443;-73
2021/06/17 07:13:09;;;;;;;10.00;9.30;;;23.50;99.90;;;;;;5030554;28;20957;-73
2021/06/17 07:15:34;;;;;;;10.70;9.90;;;23.70;99.90;;;;;;5033534;28;20439;-73
2021/06/17 07:18:00;;;;;;;9.40;8.73;;;23.80;99.90;;;;;;5030946;28;20429;-74
2021/06/17 07:20:26;;;;;;;10.57;9.57;;;23.80;99.90;;;;;;5033563;28;20181;-73
2021/06/17 07:22:55;;;;;;;10.50;9.60;;;24.00;99.90;;;;;;5032410;28;20197;-72
2021/06/17 07:25:25;;;;;;;10.17;9.37;;;24.10;99.90;;;;;;5030494;28;21567;-73
2021/06/17 07:27:51;;;;;;;10.47;9.70;;;24.10;99.90;;;;;;5010282;28;20511;-72
2021/06/17 07:30:17;;;;;;;10.07;9.27;;;24.30;99.90;;;;;;5025743;28;20446;-74
2021/06/17 07:32:45;;;;;;;10.70;9.70;;;24.40;99.90;;;;;;5031570;28;20233;-74
2021/06/17 07:35:11;;;;;;;11.33;10.43;;;24.40;99.90;;;;;;5032093;28;20428;-73
2021/06/17 07:37:37;;;;;;;10.63;9.73;;;24.50;99.90;;;;;;5028244;28;20486;-74
2021/06/17 07:40:05;;;;;;;10.17;9.23;;;24.50;99.90;;;;;;5029527;28;20494;-73
2021/06/17 07:42:31;;;;;;;9.40;8.70;;;24.70;99.90;;;;;;5034170;28;20428;-73
2021/06/17 07:44:56;;;;;;;11.20;10.30;;;24.90;99.90;;;;;;5033401;28;20756;-73
2021/06/17 07:47:22;;;;;;;10.37;9.60;;;25.00;99.90;;;;;;5031622;28;20247;-73
2021/06/17 07:49:48;;;;;;;11.03;10.13;;;25.10;99.90;;;;;;5032668;28;20563;-74
2021/06/17 07:52:13;;;;;;;9.87;9.20;;;25.20;99.90;;;;;;5033189;28;20265;-73
2021/06/17 07:54:39;;;;;;;11.13;10.03;;;25.30;99.90;;;;;;5033203;28;20288;-74
2021/06/17 07:57:05;;;;;;;10.30;9.43;;;25.50;99.90;;;;;;5034485;28;20170;-74
2021/06/17 07:59:30;;;;;;;11.00;10.13;;;25.50;99.90;;;;;;5030970;28;20497;-73
2021/06/17 08:01:56;;;;;;;9.53;8.70;;;25.70;99.90;;;;;;5031192;28;20283;-73
2021/06/17 08:04:26;;;;;;;11.50;9.70;;;25.80;99.90;;;;;;5010342;28;20222;-73
2021/06/17 08:06:51;;;;;;;10.67;9.80;;;25.90;99.90;;;;;;5031391;28;22985;-74
2021/06/17 08:09:18;;;;;;;10.40;9.50;;;26.00;99.90;;;;;;5021988;28;21002;-74
2021/06/17 08:11:48;;;;;;;10.07;9.37;;;26.10;99.90;;;;;;5030659;28;20185;-74
2021/06/17 08:14:20;;;;;;;9.43;8.80;;;26.30;99.90;;;;;;5028875;28;20548;-73
2021/06/17 08:16:46;;;;;;;9.13;8.33;;;26.30;99.90;;;;;;5022746;28;21001;-74
2021/06/17 08:19:12;;;;;;;9.93;9.30;;;26.50;99.90;;;;;;5031114;28;20460;-75
2021/06/17 08:21:38;;;;;;;10.57;9.63;;;26.70;99.90;;;;;;5025270;28;20265;-74
2021/06/17 08:24:04;;;;;;;10.70;9.80;;;26.70;99.90;;;;;;5027502;28;20189;-74
2021/06/17 08:26:32;;;;;;;10.00;9.20;;;26.90;99.90;;;;;;5030927;28;20178;-74
2021/06/17 08:28:57;;;;;;;10.00;9.20;;;26.90;99.90;;;;;;5032794;28;20454;-74
2021/06/17 08:31:23;;;;;;;9.93;8.93;;;27.00;99.90;;;;;;5030385;28;20432;-74
2021/06/17 08:33:49;;;;;;;9.87;9.27;;;27.20;99.90;;;;;;5031853;28;20719;-74
2021/06/17 08:36:16;;;;;;;11.10;10.17;;;27.40;99.90;;;;;;5029713;28;20184;-73
2021/06/17 08:38:42;;;;;;;37.27;11.50;;;27.50;99.90;;;;;;5032142;28;20202;-74
2021/06/17 08:41:08;;;;;;;12.53;9.77;;;27.60;99.90;;;;;;5029960;28;20804;-74
2021/06/17 08:43:35;;;;;;;10.60;9.53;;;27.70;99.90;;;;;;5031709;28;20508;-73
2021/06/17 08:46:02;;;;;;;11.10;10.20;;;27.80;99.90;;;;;;5032158;28;20200;-73
2021/06/17 08:48:27;;;;;;;10.17;9.37;;;27.80;99.90;;;;;;5031079;28;20447;-74
2021/06/17 08:50:54;;;;;;;10.63;9.97;;;27.90;99.90;;;;;;5030134;28;20424;-74
2021/06/17 08:53:21;;;;;;;12.57;10.00;;;28.10;99.90;;;;;;5030605;28;20217;-74
2021/06/17 08:55:46;;;;;;;10.23;9.23;;;28.30;99.90;;;;;;5031519;28;20444;-74
2021/06/17 08:58:12;;;;;;;9.90;9.10;;;28.50;99.90;;;;;;5029379;28;20837;-74
2021/06/17 09:00:49;;;;;;;10.70;10.00;;;28.60;99.90;;;;;;5031150;28;20283;-74
2021/06/17 09:03:17;;;;;;;10.30;9.60;;;28.70;99.90;;;;;;5014115;28;20181;-73
2021/06/17 09:05:54;;;;;;;10.30;9.50;;;28.90;99.90;;;;;;5028373;28;20456;-74
2021/06/17 09:08:33;;;;;;;10.40;9.47;;;29.00;99.90;;;;;;5029447;28;20440;-73
2021/06/17 09:11:02;;;;;;;9.60;8.90;;;29.20;99.90;;;;;;5031194;28;20458;-73
2021/06/17 09:13:30;;;;;;;9.30;8.60;;;29.20;99.90;;;;;;5008140;28;20456;-73
2021/06/17 09:15:56;;;;;;;8.87;8.17;;;29.20;99.90;;;;;;5028209;28;20436;-73
2021/06/17 09:18:32;;;;;;;8.80;8.30;;;29.30;99.90;;;;;;5028287;28;20490;-73
2021/06/17 09:21:03;;;;;;;10.27;9.47;;;29.50;99.90;;;;;;5030254;28;20459;-73
2021/06/17 09:23:30;;;;;;;9.20;8.43;;;29.60;99.90;;;;;;5029316;28;20988;-73
2021/06/17 09:26:18;;;;;;;9.43;8.80;;;29.70;99.90;;;;;;5029365;28;20515;-73
2021/06/17 09:29:06;;;;;;;8.37;7.87;;;29.90;99.90;;;;;;5013441;28;20495;-73
2021/06/17 09:31:41;;;;;;;8.97;8.47;;;30.10;99.90;;;;;;5027530;28;20430;-74
2021/06/17 09:34:14;;;;;;;10.33;9.50;;;30.20;99.90;;;;;;5027585;28;20452;-73
2021/06/17 09:36:40;;;;;;;10.20;9.33;;;30.20;99.90;;;;;;5030909;28;20559;-74
2021/06/17 09:39:15;;;;;;;10.53;8.47;;;30.40;99.90;;;;;;5028284;28;20429;-74
2021/06/17 09:41:46;;;;;;;8.97;8.03;;;30.60;99.90;;;;;;5023681;28;20428;-74
2021/06/17 09:44:39;;;;;;;8.63;7.83;;;30.70;99.90;;;;;;5032394;28;20518;-74
2021/06/17 09:47:18;;;;;;;7.67;7.17;;;30.90;99.90;;;;;;5031488;28;20491;-73
2021/06/17 09:49:46;;;;;;;8.53;7.73;;;31.00;99.90;;;;;;5032920;28;20428;-74
2021/06/17 09:52:15;;;;;;;7.60;7.00;;;31.00;99.90;;;;;;5028278;28;20469;-74
2021/06/17 09:54:44;;;;;;;7.80;7.10;;;31.00;99.90;;;;;;5028371;28;20456;-72
2021/06/17 09:57:16;;;;;;;8.07;7.37;;;31.20;99.90;;;;;;5032137;28;20486;-74
2021/06/17 09:59:46;;;;;;;7.97;7.40;;;31.30;99.90;;;;;;5031058;28;20444;-73
2021/06/17 10:02:25;;;;;;;6.80;6.40;;;31.60;99.90;;;;;;5029705;28;20920;-73
2021/06/17 10:05:08;;;;;;;7.20;6.50;;;31.60;99.90;;;;;;5032086;28;20417;-72
2021/06/17 10:07:34;;;;;;;7.10;6.57;;;31.60;99.90;;;;;;5029611;28;20444;-72
2021/06/17 10:10:00;;;;;;;6.70;6.30;;;31.70;99.90;;;;;;5030743;28;20948;-72
2021/06/17 10:12:26;;;;;;;6.77;6.10;;;31.80;99.90;;;;;;5030602;28;20440;-72
2021/06/17 10:14:53;;;;;;;6.40;6.00;;;31.90;99.90;;;;;;5031057;28;20765;-72
2021/06/17 10:17:19;;;;;;;8.00;6.50;;;32.10;99.90;;;;;;5030322;28;20544;-72
2021/06/17 10:19:45;;;;;;;6.63;6.23;;;32.10;99.90;;;;;;5030614;28;20511;-72
2021/06/17 10:22:11;;;;;;;6.67;6.17;;;32.20;99.90;;;;;;5029986;28;20295;-72
2021/06/17 10:24:39;;;;;;;7.33;6.83;;;32.30;99.90;;;;;;5028667;28;20441;-72
2021/06/17 10:27:12;;;;;;;6.67;6.27;;;32.40;99.90;;;;;;5031030;28;20201;-72
2021/06/17 10:29:47;;;;;;;6.17;5.87;;;32.50;99.90;;;;;;5031534;28;20426;-71
2021/06/17 10:32:16;;;;;;;6.37;5.97;;;32.60;99.90;;;;;;5030906;28;20434;-72
2021/06/17 10:34:46;;;;;;;5.37;5.07;;;32.70;99.90;;;;;;5028053;28;20798;-71
2021/06/17 10:37:25;;;;;;;6.30;5.87;;;32.80;99.90;;;;;;5029604;28;20476;-72
2021/06/17 10:40:09;;;;;;;5.10;4.80;;;32.90;99.90;;;;;;5030314;28;20417;-72
2021/06/17 10:42:38;;;;;;;5.57;5.17;;;33.00;99.60;;;;;;5031040;28;20428;-72
2021/06/17 10:45:07;;;;;;;5.87;5.47;;;33.10;99.70;;;;;;5031124;28;20517;-72
2021/06/17 10:47:44;;;;;;;5.60;5.23;;;33.10;99.70;;;;;;5028251;28;20869;-72
2021/06/17 10:50:21;;;;;;;5.53;5.20;;;33.20;99.20;;;;;;5027388;28;20508;-72
2021/06/17 10:52:51;;;;;;;6.93;5.70;;;33.40;99.10;;;;;;5027813;28;20444;-72
2021/06/17 10:55:20;;;;;;;6.13;5.73;;;33.50;99.80;;;;;;5029628;28;20425;-72
2021/06/17 10:57:52;;;;;;;5.97;5.47;;;33.60;99.90;;;;;;5029372;28;20892;-71
2021/06/17 11:00:29;;;;;;;5.30;5.00;;;33.70;99.30;;;;;;5029716;28;20432;-72
2021/06/17 11:03:05;;;;;;;5.63;5.20;;;33.80;98.00;;;;;;5028227;28;20559;-71
2021/06/17 11:05:38;;;;;;;5.90;5.50;;;33.90;97.80;;;;;;5030593;28;20443;-71
2021/06/17 11:08:23;;;;;;;4.93;4.60;;;33.90;98.10;;;;;;5028650;28;20444;-71
2021/06/17 11:10:53;;;;;;;5.80;5.43;;;33.70;98.10;;;;;;5026937;28;20933;-73
2021/06/17 11:13:30;;;;;;;5.03;4.70;;;33.80;97.60;;;;;;5030908;28;20480;-73
2021/06/17 11:15:57;;;;;;;4.90;4.60;;;33.80;97.80;;;;;;5030961;28;20508;-73
2021/06/17 11:18:42;;;;;;;5.10;4.70;;;34.10;97.80;;;;;;5031094;28;21112;-73
2021/06/17 11:24:00;;;;;;;4.13;3.93;;;34.70;95.70;;;;;;5034505;28;20426;-73
2021/06/17 11:26:41;;;;;;;4.47;4.17;;;34.90;94.70;;;;;;5033887;28;20412;-73
2021/06/17 11:29:14;;;;;;;4.60;4.30;;;35.20;94.00;;;;;;5034457;28;20427;-73
2021/06/17 11:31:41;;;;;;;5.00;4.17;;;35.30;94.00;;;;;;5033477;28;20580;-73
2021/06/17 11:34:07;;;;;;;4.93;4.40;;;35.40;94.20;;;;;;5033213;28;20445;-73
2021/06/17 11:36:34;;;;;;;3.97;3.60;;;35.30;93.90;;;;;;5034343;28;20551;-72
2021/06/17 11:39:03;;;;;;;4.73;4.43;;;35.20;93.90;;;;;;5033825;28;20511;-72
2021/06/17 11:41:31;;;;;;;4.10;3.90;;;35.20;93.40;;;;;;5032972;28;20551;-73
2021/06/17 11:44:01;;;;;;;4.40;4.10;;;35.40;93.30;;;;;;5032408;28;20429;-72
2021/06/17 11:46:29;;;;;;;4.97;4.60;;;35.50;92.60;;;;;;5033648;28;20427;-72
2021/06/17 11:49:00;;;;;;;4.83;4.47;;;35.60;93.10;;;;;;5032748;28;20420;-72
2021/06/17 11:51:39;;;;;;;4.67;4.40;;;35.60;93.00;;;;;;5032077;28;21964;-72
2021/06/17 11:54:05;;;;;;;4.33;4.13;;;35.70;93.30;;;;;;5033031;28;20454;-73
2021/06/17 11:56:31;;;;;;;4.77;4.40;;;35.80;92.30;;;;;;5033087;28;20413;-72
2021/06/17 11:59:25;;;;;;;4.70;4.30;;;36.00;92.50;;;;;;5032856;28;20483;-72
2021/06/17 12:02:27;;;;;;;5.07;4.77;;;36.10;90.00;;;;;;5031943;28;20420;-73
2021/06/17 12:05:04;;;;;;;4.70;4.40;;;35.90;90.50;;;;;;5016546;28;20602;-73
2021/06/17 12:07:35;;;;;;;5.00;4.70;;;35.80;91.80;;;;;;5031813;28;20459;-73
2021/06/17 12:10:19;;;;;;;4.60;4.30;;;36.00;92.00;;;;;;5033737;28;20431;-73
2021/06/17 12:12:52;;;;;;;4.63;4.33;;;36.20;91.50;;;;;;5031918;28;20459;-73
2021/06/17 12:15:42;;;;;;;4.80;4.50;;;36.20;91.30;;;;;;5032581;28;20420;-73
2021/06/17 12:18:09;;;;;;;4.73;4.43;;;36.30;90.10;;;;;;5031684;28;20450;-73
2021/06/17 12:20:37;;;;;;;4.30;4.00;;;36.30;89.60;;;;;;5032502;28;20428;-73
2021/06/17 12:23:03;;;;;;;4.80;4.53;;;36.60;88.40;;;;;;5032224;28;20428;-73
2021/06/17 12:25:31;;;;;;;4.50;4.30;;;36.80;87.30;;;;;;5031788;28;20419;-72
2021/06/17 12:28:01;;;;;;;4.77;4.57;;;36.70;86.00;;;;;;5032075;28;20177;-72
2021/06/17 12:30:34;;;;;;;4.70;4.40;;;36.80;89.10;;;;;;5032528;28;20889;-72
2021/06/17 12:33:20;;;;;;;5.07;4.70;;;36.80;89.10;;;;;;5031886;28;20448;-72
2021/06/17 12:35:50;;;;;;;4.83;4.53;;;36.80;90.00;;;;;;5030253;28;20988;-72
2021/06/17 12:38:28;;;;;;;4.80;4.50;;;36.90;89.60;;;;;;5030787;28;20916;-72
2021/06/17 12:40:55;;;;;;;5.43;5.03;;;37.20;88.70;;;;;;5031871;28;20416;-72
2021/06/17 12:43:25;;;;;;;4.97;4.60;;;37.40;89.00;;;;;;5022171;28;20428;-72
2021/06/17 12:46:04;;;;;;;5.47;5.10;;;37.40;86.20;;;;;;5031897;28;20420;-72
2021/06/17 12:54:26;;;;;;;4.10;3.93;;;37.50;86.00;;;;;;5029531;28;20455;-72
2021/06/17 12:57:01;;;;;;;3.90;3.80;;;37.70;84.50;;;;;;5031026;28;20419;-72
2021/06/17 12:59:48;;;;;;;4.83;4.53;;;37.90;82.90;;;;;;5031811;28;20833;-72
2021/06/17 13:02:23;;;;;;;5.00;4.60;;;38.00;81.90;;;;;;5027417;28;20757;-72
2021/06/17 13:05:27;;;;;;;5.30;4.90;;;38.10;82.70;;;;;;5030501;28;20422;-72